createdAt,value
2019-04-23T04:25:44.751Z,4.37
2019-04-23T04:31:35.090Z,4.70
2019-04-23T04:36:21.786Z,4.50
2019-04-23T04:38:44.943Z,4.10
2019-04-23T04:41:25.511Z,4.70
2019-04-23T04:49:01.619Z,4.67
2019-04-23T04:51:37.706Z,4.80
2019-04-23T04:54:18.909Z,4.60
2019-04-23T04:56:43.093Z,4.93
2019-04-23T04:59:11.894Z,4.60
2019-04-23T05:01:54.202Z,4.80
2019-04-23T05:04:37.819Z,4.70
2019-04-23T05:07:04.110Z,4.90
2019-04-23T05:09:30.879Z,5.17
2019-04-23T05:14:33.541Z,4.70
2019-04-23T05:17:13.570Z,4.87
2019-04-23T05:19:43.007Z,4.77
2019-04-23T05:22:16.598Z,4.93
2019-04-23T05:24:46.520Z,4.80
2019-04-23T05:27:19.307Z,4.43
2019-04-23T05:29:53.104Z,4.87
2019-04-23T05:32:26.462Z,4.73
2019-04-23T05:34:57.905Z,4.60
2019-04-23T05:37:45.184Z,4.80
2019-04-23T05:40:08.480Z,4.80
2019-04-23T05:42:40.070Z,5.10
2019-04-23T05:45:30.202Z,4.63
2019-04-23T05:48:52.545Z,4.83
2019-04-23T05:54:46.455Z,5.10
2019-04-23T05:57:09.012Z,5.17
2019-04-23T05:59:43.241Z,5.00
2019-04-23T06:02:10.514Z,4.80
2019-04-23T06:04:42.706Z,4.93
2019-04-23T06:07:28.813Z,4.87
2019-04-23T06:09:52.107Z,4.90
2019-04-23T06:12:18.721Z,4.93
2019-04-23T06:17:25.440Z,4.97
2019-04-23T06:20:05.872Z,5.33
2019-04-23T06:22:34.687Z,4.80
2019-04-23T06:25:27.877Z,4.53
2019-04-23T06:27:39.364Z,4.83
2019-04-23T06:30:22.802Z,4.93
2019-04-23T06:32:44.463Z,5.33
2019-04-23T06:35:48.174Z,5.27
2019-04-23T06:40:34.276Z,5.13
2019-04-23T06:43:26.405Z,4.83
2019-04-23T06:45:49.433Z,5.00
2019-04-23T06:48:38.473Z,4.90
2019-04-23T06:51:15.887Z,5.00
2019-04-23T06:53:40.760Z,4.97
2019-04-23T06:56:21.019Z,5.40
2019-04-23T06:59:07.598Z,5.57
2019-04-23T07:01:37.746Z,5.07
2019-04-23T07:04:12.386Z,4.93
2019-04-23T07:06:46.879Z,5.10
2019-04-23T07:09:15.225Z,5.27
2019-04-23T07:11:47.933Z,5.50
2019-04-23T07:14:32.244Z,5.40
2019-04-23T07:16:58.541Z,5.57
2019-04-23T07:19:33.869Z,5.43
2019-04-23T07:24:40.619Z,5.27
2019-04-23T07:27:03.295Z,5.60
2019-04-23T07:33:16.722Z,5.60
2019-04-23T07:35:45.368Z,5.57
2019-04-23T07:38:47.496Z,5.27
2019-04-23T07:41:23.415Z,4.97
2019-04-23T07:49:48.880Z,4.87
2019-04-23T07:52:27.554Z,5.30
2019-04-23T07:55:06.623Z,5.33
2019-04-23T07:57:35.018Z,5.50
2019-04-23T08:00:07.873Z,5.20
2019-04-23T08:02:49.944Z,5.30
2019-04-23T08:05:29.206Z,4.87
2019-04-23T08:08:03.894Z,4.70
2019-04-23T08:10:35.739Z,5.33
2019-04-23T08:18:36.821Z,5.50
2019-04-23T08:21:14.454Z,5.20
2019-04-23T08:30:59.036Z,5.27
2019-04-23T08:33:45.125Z,5.27
2019-04-23T08:36:11.709Z,6.30
2019-04-23T08:38:57.022Z,5.37
2019-04-23T08:41:35.914Z,5.40
2019-04-23T08:44:11.319Z,5.50
2019-04-23T08:49:29.364Z,5.57
2019-04-23T08:54:56.742Z,5.20
2019-04-23T08:57:38.311Z,5.33
2019-04-23T09:00:37.307Z,5.13
2019-04-23T09:08:19.285Z,5.67
2019-04-23T09:16:35.908Z,5.47
2019-04-23T09:19:16.536Z,6.03
2019-04-23T09:21:58.044Z,5.30
2019-04-23T09:24:43.107Z,5.47
2019-04-23T09:27:23.367Z,5.53
2019-04-23T09:42:00.605Z,5.20
2019-04-23T09:55:12.004Z,5.27
2019-04-23T10:01:25.990Z,5.30
2019-04-23T10:06:32.690Z,13.13
2019-04-23T10:11:49.277Z,4.93
2019-04-23T10:15:08.064Z,5.10
2019-04-23T10:24:03.504Z,5.17
2019-04-23T10:26:35.478Z,5.33
2019-04-23T10:29:13.870Z,4.95
2019-04-23T10:31:45.890Z,9.93
2019-04-23T10:34:17.065Z,6.58
2019-04-23T10:36:49.340Z,5.22
2019-04-23T10:39:25.591Z,5.17
2019-04-23T10:41:54.859Z,5.10
2019-04-23T10:44:46.437Z,4.87
2019-04-23T10:48:13.834Z,4.85
2019-04-23T10:50:55.385Z,5.47
2019-04-23T10:53:46.054Z,5.35
2019-04-23T11:05:22.571Z,5.20
2019-04-23T11:07:51.478Z,5.30
2019-04-23T11:10:26.293Z,5.62
2019-04-23T11:23:29.112Z,5.37
2019-04-23T11:26:06.534Z,5.28
2019-04-23T11:28:50.331Z,5.47
2019-04-23T11:42:08.608Z,5.20
2019-04-23T11:44:49.129Z,5.62
2019-04-23T11:47:12.604Z,5.95
2019-04-23T11:49:53.408Z,5.90
2019-04-23T11:53:11.669Z,5.78
2019-04-23T11:55:52.098Z,5.75
2019-04-23T12:07:17.279Z,5.65
2019-04-23T12:15:23.885Z,5.45
2019-04-23T12:17:50.857Z,5.95
2019-04-23T12:20:28.925Z,6.37
2019-04-23T12:23:06.392Z,6.03
2019-04-23T12:25:34.100Z,6.00
2019-04-23T12:27:59.707Z,5.62
2019-04-23T12:30:39.603Z,5.65
2019-04-23T12:33:13.313Z,5.65
2019-04-23T12:35:37.494Z,5.53
2019-04-23T12:38:25.644Z,5.47
2019-04-23T12:40:45.676Z,5.70
2019-04-23T12:43:19.312Z,5.80
2019-04-23T12:45:47.051Z,5.65
2019-04-23T12:48:33.847Z,5.67
2019-04-23T12:53:30.394Z,6.00
2019-04-23T12:56:25.613Z,6.37
2019-04-23T13:00:57.354Z,6.12
2019-04-23T13:03:37.254Z,5.83
2019-04-23T13:06:10.244Z,6.25
2019-04-23T13:08:46.587Z,6.00
2019-04-23T13:11:17.597Z,6.12
2019-04-23T13:13:51.975Z,5.83
2019-04-23T13:16:25.252Z,6.20
2019-04-23T13:24:15.914Z,6.15
2019-04-23T13:26:44.626Z,5.97
2019-04-23T13:29:33.097Z,7.03
2019-04-23T13:31:53.556Z,5.95
2019-04-23T13:34:38.057Z,5.67
2019-04-23T13:39:33.036Z,6.37
2019-04-23T13:42:12.008Z,6.58
2019-04-23T13:44:42.698Z,6.28
2019-04-23T13:47:30.447Z,6.60
2019-04-23T13:49:51.146Z,6.22
2019-04-23T13:52:47.829Z,6.28
2019-04-23T13:57:57.340Z,6.55
2019-04-23T14:00:22.634Z,6.17
2019-04-23T14:02:52.665Z,6.33
2019-04-23T14:05:49.332Z,6.40
2019-04-23T14:08:41.605Z,6.20
2019-04-23T14:10:55.843Z,5.90
2019-04-23T14:18:55.201Z,5.95
2019-04-23T14:21:20.505Z,7.15
2019-04-23T14:24:03.309Z,6.47
2019-04-23T14:31:23.541Z,5.83
2019-04-23T14:41:31.080Z,6.47
2019-04-23T14:44:18.587Z,5.90
2019-04-23T14:47:14.681Z,6.35
2019-04-23T14:49:44.707Z,5.87
2019-04-23T14:52:12.090Z,6.03
2019-04-23T14:55:31.526Z,6.12
2019-04-23T14:57:31.703Z,6.40
2019-04-23T14:59:54.016Z,6.17
2019-04-23T15:05:04.068Z,6.33
2019-04-23T15:07:37.590Z,6.00
2019-04-23T15:10:23.295Z,6.05
2019-04-23T15:12:48.633Z,5.67
2019-04-23T15:15:14.357Z,5.85
2019-04-23T15:17:53.586Z,5.78
2019-04-23T15:20:22.827Z,6.12
2019-04-23T15:30:29.504Z,6.50
2019-04-23T15:35:53.352Z,7.97
2019-04-23T15:38:37.550Z,10.75
2019-04-23T15:40:55.458Z,8.00
2019-04-23T15:43:14.493Z,6.67
2019-04-23T15:46:09.852Z,9.85
2019-04-23T15:48:24.072Z,7.58
2019-04-23T15:51:10.085Z,6.72
2019-04-23T15:53:30.910Z,5.87
2019-04-23T15:56:18.766Z,6.22
2019-04-23T15:58:56.184Z,5.70
2019-04-23T16:03:27.483Z,5.97
2019-04-23T16:05:57.408Z,5.53
2019-04-23T16:09:04.999Z,6.67
2019-04-23T16:14:17.562Z,5.92
2019-04-23T16:16:37.425Z,6.10
2019-04-23T16:19:25.831Z,5.85
2019-04-23T16:22:01.815Z,6.45
2019-04-23T16:24:21.848Z,6.62
2019-04-23T16:27:16.247Z,6.10
2019-04-23T16:29:46.632Z,6.20
2019-04-23T16:32:14.825Z,5.65
2019-04-23T16:34:50.696Z,5.80
2019-04-23T16:37:20.205Z,6.20
2019-04-23T16:40:01.842Z,6.22
2019-04-23T16:45:15.215Z,6.10
2019-04-23T16:47:32.873Z,6.10
2019-04-23T16:50:14.246Z,6.00
2019-04-23T16:52:39.496Z,5.65
2019-04-23T16:55:24.012Z,6.33
2019-04-23T16:58:01.640Z,5.83
2019-04-23T17:00:33.763Z,5.85
2019-04-23T17:03:11.198Z,5.75
2019-04-23T17:05:39.479Z,6.12
2019-04-23T17:13:27.094Z,6.40
2019-04-23T17:16:38.233Z,5.55
2019-04-23T17:40:14.097Z,6.33
2019-04-23T17:47:34.653Z,6.42
2019-04-23T17:50:27.074Z,5.83
2019-04-23T17:53:26.861Z,5.85
2019-04-23T18:00:03.335Z,5.83
2019-04-23T18:02:48.264Z,6.15
2019-04-23T18:07:38.068Z,6.08
2019-04-23T18:13:04.411Z,7.17
2019-04-23T18:16:35.449Z,8.05
2019-04-23T18:19:34.347Z,8.33
2019-04-23T18:28:30.062Z,8.85
2019-04-23T18:38:13.433Z,7.20
2019-04-23T18:40:54.285Z,6.42
2019-04-23T18:45:53.172Z,6.42
2019-04-23T18:53:45.592Z,6.03
2019-04-23T18:58:54.406Z,6.33
2019-04-23T19:01:23.181Z,6.12
2019-04-23T19:04:09.674Z,7.15
2019-04-23T19:06:37.797Z,7.85
2019-04-23T19:09:33.805Z,8.03
2019-04-23T19:12:31.378Z,7.47
2019-04-23T19:15:04.023Z,7.20
2019-04-23T19:17:46.438Z,7.20
2019-04-23T19:20:01.140Z,6.70
2019-04-23T19:22:47.217Z,6.83
2019-04-23T19:25:42.095Z,6.92
2019-04-23T19:28:30.317Z,7.10
2019-04-23T19:31:07.420Z,7.50
2019-04-23T19:33:54.830Z,6.93
2019-04-23T19:36:26.505Z,7.65
2019-04-23T19:39:05.487Z,7.53
2019-04-23T19:41:44.648Z,7.03
2019-04-23T19:44:12.885Z,7.10
2019-04-23T19:46:50.687Z,8.00
2019-04-23T19:51:48.238Z,6.85
2019-04-23T19:59:31.660Z,7.30
2019-04-23T20:02:00.222Z,8.13
2019-04-23T20:04:40.706Z,8.20
2019-04-23T20:09:50.451Z,7.90
2019-04-23T20:12:28.338Z,7.83
2019-04-23T20:14:54.874Z,7.10
2019-04-23T20:19:56.744Z,7.30
2019-04-23T20:22:41.760Z,7.17
2019-04-23T20:25:46.361Z,7.37
2019-04-23T20:28:17.279Z,7.43
2019-04-23T20:34:01.280Z,7.90
2019-04-23T20:36:34.614Z,8.40
2019-04-23T20:39:17.397Z,7.13
2019-04-23T20:42:07.878Z,7.53
2019-04-23T20:44:35.870Z,7.50
2019-04-23T20:47:11.614Z,7.90
2019-04-23T20:49:38.790Z,8.07
2019-04-23T20:54:56.885Z,8.13
2019-04-23T21:00:09.078Z,7.80
2019-04-23T21:05:20.867Z,7.37
2019-04-23T21:07:59.105Z,7.83
2019-04-23T21:10:35.931Z,7.43
2019-04-23T21:23:12.463Z,8.20
2019-04-23T21:25:44.885Z,7.90
2019-04-23T21:28:35.910Z,7.90
2019-04-23T21:31:19.503Z,8.60
2019-04-23T21:33:50.656Z,8.17
2019-04-23T21:36:40.431Z,8.10
2019-04-23T21:40:12.454Z,7.80
2019-04-23T21:42:39.074Z,7.50
2019-04-23T21:44:53.951Z,8.63
2019-04-23T21:47:42.635Z,7.57
2019-04-23T21:52:33.996Z,7.67
